Portada
METAR-TAF:

METAR-TAF

Aeropuertos :

Montevideo-Chippewa County Airport

Montevideo, Minnesota, Estados Unidos

latitud: 44-58N, longitud: 095-43W, altitud: 315 m

Observación

El informe se hizo hace 28 minutos, a las 01:55 UTC
Viento 12 kt del norte
Temperatura 19°C
Humedad 37%
Presión 1017 hPa
Visibilidad: 16.1 km
Cielo nuboso a una altura de 7000 ft

METAR: KMVE 290155Z AUTO 36012KT 10SM BKN070 19/04 A3004 RMK AO2

Hora: 21:23 (02:23 UTC)


TAF: falta

Observaciones y pronósticos meteorológicos de más de 4000 aeropuertos (mensajes METAR y TAF).

Los puntos amarillos y rojos representan las estaciones disponibles.

Ponga el ratón en el punto deseado para ver el nombre de la estación.

Haga clic para ver las observaciones y los pronósticos meteorológicos.

Para cambiar el mapa : haga clic en los botones verdes con una cruz de color negro para hacer un zoom, en el botón verde con un guión para alejar o en las flechas verdes para mapas adyacentes.


METAR-TAF: